createdAt,value
2023-03-04T00:00:10.338Z,25.42
2023-03-04T00:02:38.609Z,24.83
2023-03-04T00:05:07.290Z,19.55
2023-03-04T00:07:35.641Z,24.85
2023-03-04T00:10:05.537Z,20.48
2023-03-04T00:12:33.869Z,27.55
2023-03-04T00:15:02.122Z,19.95
2023-03-04T00:17:31.514Z,19.50
2023-03-04T00:20:00.163Z,23.17
2023-03-04T00:22:28.499Z,23.65
2023-03-04T00:24:56.797Z,24.60
2023-03-04T00:27:26.385Z,21.73
2023-03-04T00:29:54.668Z,22.85
2023-03-04T00:32:23.075Z,20.33
2023-03-04T00:34:51.447Z,21.92
2023-03-04T00:37:19.718Z,20.17
2023-03-04T00:39:47.967Z,23.20
2023-03-04T00:42:16.242Z,21.50
2023-03-04T00:44:45.845Z,23.83
2023-03-04T00:47:14.147Z,23.10
2023-03-04T00:49:42.564Z,22.98
2023-03-04T00:52:11.211Z,23.63
2023-03-04T00:54:39.476Z,21.65
2023-03-04T00:57:07.763Z,20.80
2023-03-04T00:59:36.024Z,22.92
2023-03-04T01:02:05.828Z,21.35
2023-03-04T01:04:34.163Z,21.25
2023-03-04T01:07:02.519Z,22.67
2023-03-04T01:09:30.919Z,24.30
2023-03-04T01:11:59.242Z,23.85
2023-03-04T01:14:27.489Z,25.00
2023-03-04T01:16:55.812Z,25.65
2023-03-04T01:19:25.434Z,22.45
2023-03-04T01:21:53.831Z,28.48
2023-03-04T01:24:23.594Z,20.38
2023-03-04T01:26:51.860Z,20.75
2023-03-04T01:29:20.109Z,24.48
2023-03-04T01:31:48.773Z,26.70
2023-03-04T01:34:17.997Z,18.92
2023-03-04T01:36:47.600Z,26.52
2023-03-04T01:39:15.870Z,22.63
2023-03-04T01:41:44.238Z,22.02
2023-03-04T01:44:12.673Z,25.50
2023-03-04T01:46:42.437Z,24.40
2023-03-04T01:49:11.438Z,26.10
2023-03-04T01:51:39.712Z,26.65
2023-03-04T01:54:10.766Z,27.70
2023-03-04T01:56:40.241Z,34.03
2023-03-04T01:59:09.432Z,29.13
2023-03-04T02:01:38.421Z,28.52
2023-03-04T02:04:07.581Z,31.00
2023-03-04T02:06:36.165Z,32.40
2023-03-04T02:09:05.431Z,34.13
2023-03-04T02:11:35.958Z,30.00
2023-03-04T02:14:04.444Z,30.45
2023-03-04T02:16:32.930Z,33.05
2023-03-04T02:19:02.097Z,25.00
2023-03-04T02:21:30.980Z,30.65
2023-03-04T02:24:05.119Z,31.52
2023-03-04T02:26:35.947Z,33.22
2023-03-04T02:29:05.231Z,32.25
2023-03-04T02:31:35.314Z,30.75
2023-03-04T02:34:04.371Z,28.55
2023-03-04T02:36:33.930Z,33.15
2023-03-04T02:39:03.779Z,31.95
2023-03-04T02:41:32.437Z,36.17
2023-03-04T02:44:02.903Z,31.83
2023-03-04T02:46:31.500Z,32.25
2023-03-04T02:48:59.849Z,36.90
2023-03-04T02:51:29.763Z,36.63
2023-03-04T02:53:58.153Z,33.38
2023-03-04T02:56:26.730Z,30.02
2023-03-04T02:58:55.548Z,28.88
2023-03-04T03:01:29.385Z,24.88
2023-03-04T03:03:58.508Z,30.98
2023-03-04T03:06:26.905Z,22.45
2023-03-04T03:08:56.040Z,20.30
2023-03-04T03:11:26.551Z,26.42
2023-03-04T03:13:56.560Z,25.63
2023-03-04T03:16:26.539Z,28.13
2023-03-04T03:18:55.001Z,27.40
2023-03-04T03:21:23.774Z,25.90
2023-03-04T03:23:52.076Z,24.02
2023-03-04T03:26:20.536Z,26.05
2023-03-04T03:28:49.123Z,23.42
2023-03-04T03:31:17.457Z,27.95
2023-03-04T03:33:49.590Z,25.38
2023-03-04T03:36:17.906Z,29.40
2023-03-04T03:38:46.201Z,24.65
2023-03-04T03:41:14.460Z,28.52
2023-03-04T03:43:42.754Z,29.23
2023-03-04T03:46:11.087Z,29.55
2023-03-04T03:48:39.367Z,24.20
2023-03-04T03:51:09.362Z,25.58
2023-03-04T03:53:37.623Z,26.80
2023-03-04T03:56:06.127Z,26.67
2023-03-04T03:58:34.403Z,26.40
2023-03-04T04:01:02.682Z,27.40
2023-03-04T04:03:30.978Z,28.50
2023-03-04T04:05:59.631Z,26.65
2023-03-04T04:08:29.311Z,27.48
2023-03-04T04:10:57.611Z,27.25
2023-03-04T04:13:25.961Z,27.52
2023-03-04T04:15:54.334Z,28.30
2023-03-04T04:18:23.788Z,28.65
2023-03-04T04:20:53.215Z,24.08
2023-03-04T04:23:21.499Z,36.20
2023-03-04T04:25:51.080Z,36.22
2023-03-04T04:28:19.310Z,30.35
2023-03-04T04:30:48.063Z,30.92
2023-03-04T04:33:16.397Z,34.47
2023-03-04T04:35:44.952Z,33.38
2023-03-04T04:38:13.237Z,29.15
2023-03-04T04:40:42.874Z,35.00
2023-03-04T04:43:12.440Z,31.35
2023-03-04T04:45:40.767Z,29.65
2023-03-04T04:48:09.098Z,30.05
2023-03-04T04:50:37.396Z,32.05
2023-03-04T04:53:05.660Z,32.08
2023-03-04T04:55:35.178Z,34.83
2023-03-04T04:58:03.475Z,31.02
2023-03-04T05:00:33.103Z,33.25
2023-03-04T05:03:01.475Z,31.50
2023-03-04T05:05:29.776Z,33.03
2023-03-04T05:07:58.110Z,32.97
2023-03-04T05:10:26.424Z,35.25
2023-03-04T05:12:54.693Z,32.85
2023-03-04T05:15:22.955Z,36.90
2023-03-04T05:17:52.541Z,31.88
2023-03-04T05:20:20.911Z,32.85
2023-03-04T05:22:49.389Z,31.40
2023-03-04T05:25:17.796Z,33.20
2023-03-04T05:27:48.812Z,34.45
2023-03-04T05:30:17.150Z,34.35
2023-03-04T05:32:45.403Z,30.95
2023-03-04T05:35:16.191Z,33.92
2023-03-04T05:37:44.565Z,35.15
2023-03-04T05:40:13.628Z,34.30
2023-03-04T05:42:41.978Z,32.88
2023-03-04T05:45:10.580Z,32.80
2023-03-04T05:47:38.907Z,37.70
2023-03-04T05:50:07.622Z,36.10
2023-03-04T05:52:37.249Z,36.70
2023-03-04T05:55:05.793Z,34.95
2023-03-04T05:57:34.329Z,31.55
2023-03-04T06:00:05.399Z,33.08
2023-03-04T06:02:44.021Z,38.28
2023-03-04T06:05:13.556Z,36.17
2023-03-04T06:07:44.052Z,34.53
2023-03-04T06:10:13.354Z,38.03
2023-03-04T06:12:41.899Z,32.47
2023-03-04T06:15:11.069Z,35.42
2023-03-04T06:17:42.162Z,39.15
2023-03-04T06:20:11.910Z,33.50
2023-03-04T06:22:40.591Z,34.40
2023-03-04T06:25:10.876Z,40.00
2023-03-04T06:27:39.771Z,36.80
2023-03-04T06:30:09.230Z,41.83
2023-03-04T06:32:37.956Z,39.03
2023-03-04T06:35:06.993Z,35.28
2023-03-04T06:37:35.440Z,40.13
2023-03-04T06:40:03.938Z,38.05
2023-03-04T06:42:33.931Z,36.10
2023-03-04T06:45:02.307Z,33.55
2023-03-04T06:47:31.017Z,34.67
2023-03-04T06:49:59.446Z,36.72
2023-03-04T06:52:27.831Z,36.13
2023-03-04T06:54:57.058Z,37.10
2023-03-04T06:57:25.406Z,34.97
2023-03-04T06:59:55.068Z,32.83
2023-03-04T07:02:24.120Z,38.88
2023-03-04T07:04:52.595Z,37.10
2023-03-04T07:07:21.086Z,35.13
2023-03-04T07:09:49.400Z,30.02
2023-03-04T07:12:35.961Z,34.42
2023-03-04T07:15:06.312Z,34.10
2023-03-04T07:17:35.494Z,33.30
2023-03-04T07:20:04.020Z,40.63
2023-03-04T07:22:32.429Z,36.20
2023-03-04T07:25:00.896Z,34.03
2023-03-04T07:27:29.264Z,35.08
2023-03-04T07:29:58.507Z,35.17
2023-03-04T07:32:29.702Z,33.25
2023-03-04T07:34:59.160Z,32.60
2023-03-04T07:37:27.639Z,32.88
2023-03-04T07:39:56.102Z,33.67
2023-03-04T07:42:24.561Z,34.50
2023-03-04T07:45:01.517Z,37.95
2023-03-04T07:47:31.433Z,39.15
2023-03-04T07:49:59.792Z,32.20
2023-03-04T07:52:28.295Z,36.08
2023-03-04T07:55:00.515Z,36.78
2023-03-04T07:57:29.488Z,35.42
2023-03-04T07:59:57.828Z,33.97
2023-03-04T08:02:28.656Z,35.38
2023-03-04T08:04:58.921Z,30.65
2023-03-04T08:07:27.294Z,38.42
2023-03-04T08:09:55.719Z,35.70
2023-03-04T08:12:28.099Z,34.72
2023-03-04T08:14:56.471Z,31.95
2023-03-04T08:17:24.850Z,33.15
2023-03-04T08:19:53.250Z,33.40
2023-03-04T08:22:23.016Z,34.53
2023-03-04T08:24:51.446Z,36.65
2023-03-04T08:27:19.792Z,30.15
2023-03-04T08:29:48.478Z,35.58
2023-03-04T08:32:16.895Z,31.35
2023-03-04T08:34:45.326Z,35.00
2023-03-04T08:37:13.669Z,32.60
2023-03-04T08:39:43.313Z,38.92
2023-03-04T08:42:11.741Z,38.40
2023-03-04T08:44:40.072Z,33.03
2023-03-04T08:47:10.224Z,31.52
2023-03-04T08:49:38.804Z,34.83
2023-03-04T08:52:07.211Z,36.70
2023-03-04T08:54:35.945Z,29.73
2023-03-04T08:57:07.750Z,34.30
2023-03-04T08:59:38.276Z,31.65
2023-03-04T09:02:06.967Z,29.95
2023-03-04T09:04:35.344Z,34.75
2023-03-04T09:07:03.706Z,29.13
2023-03-04T09:09:32.265Z,33.85
2023-03-04T09:12:02.125Z,34.55
2023-03-04T09:14:32.577Z,35.60
2023-03-04T09:17:01.043Z,30.77
2023-03-04T09:19:34.840Z,31.20
2023-03-04T09:22:03.190Z,33.63
2023-03-04T09:24:31.604Z,42.47
2023-03-04T09:26:59.972Z,34.25
2023-03-04T09:29:30.947Z,32.03
2023-03-04T09:32:00.675Z,32.00
2023-03-04T09:34:29.065Z,34.85
2023-03-04T09:37:00.385Z,31.92
2023-03-04T09:39:37.577Z,33.67
2023-03-04T09:42:10.263Z,27.77
2023-03-04T09:44:41.131Z,30.92
2023-03-04T09:47:14.095Z,31.67
2023-03-04T09:49:43.991Z,27.77
2023-03-04T09:52:28.641Z,26.63
2023-03-04T09:55:01.091Z,27.20
2023-03-04T09:57:32.602Z,26.52
2023-03-04T10:00:08.046Z,31.92
2023-03-04T10:02:49.067Z,23.23
2023-03-04T10:05:20.287Z,25.77
2023-03-04T10:07:51.269Z,26.67
2023-03-04T10:10:23.908Z,23.92
2023-03-04T10:12:52.867Z,29.13
2023-03-04T10:15:24.966Z,24.92
2023-03-04T10:18:01.444Z,26.48
2023-03-04T10:20:35.717Z,28.27
2023-03-04T10:23:10.459Z,31.20
2023-03-04T10:28:40.557Z,25.80
2023-03-04T10:31:16.731Z,27.00
2023-03-04T10:33:46.527Z,29.08
2023-03-04T10:36:45.525Z,27.02
2023-03-04T10:39:15.211Z,25.35
2023-03-04T10:41:44.771Z,24.58
2023-03-04T10:44:17.346Z,33.47
2023-03-04T10:46:49.574Z,26.52
2023-03-04T10:49:20.055Z,25.67
2023-03-04T10:51:52.239Z,24.08
2023-03-04T10:54:28.914Z,24.58
2023-03-04T10:56:58.715Z,24.77
2023-03-04T10:59:35.405Z,27.33
2023-03-04T11:02:12.536Z,24.02
2023-03-04T11:04:42.951Z,24.90
2023-03-04T11:07:11.624Z,27.80
2023-03-04T11:09:40.410Z,27.73
2023-03-04T11:12:13.247Z,24.42
2023-03-04T11:14:44.216Z,25.50
2023-03-04T11:17:22.281Z,28.65
2023-03-04T11:19:57.850Z,28.35
2023-03-04T11:22:27.262Z,22.08
2023-03-04T11:24:57.965Z,22.48
2023-03-04T11:27:29.475Z,26.92
2023-03-04T11:30:00.379Z,24.63
2023-03-04T11:32:34.972Z,28.75
2023-03-04T11:35:09.992Z,26.27
2023-03-04T11:37:41.977Z,19.58
2023-03-04T11:40:14.889Z,23.15
2023-03-04T11:42:45.648Z,22.02
2023-03-04T11:45:28.108Z,23.05
2023-03-04T11:47:59.453Z,20.48
2023-03-04T11:50:38.690Z,19.13
2023-03-04T11:53:28.113Z,17.05
2023-03-04T11:56:05.337Z,11.90
2023-03-04T11:58:48.648Z,14.75
2023-03-04T12:01:19.358Z,10.20
2023-03-04T12:04:04.055Z,14.07
2023-03-04T12:06:37.389Z,10.02
2023-03-04T12:09:17.028Z,11.35
2023-03-04T12:11:52.204Z,10.80
2023-03-04T12:14:27.730Z,11.10
2023-03-04T12:17:03.067Z,12.77
2023-03-04T12:19:35.253Z,12.90
2023-03-04T12:22:29.852Z,12.60
2023-03-04T12:25:09.588Z,13.77
2023-03-04T12:27:42.134Z,11.57
2023-03-04T12:30:21.780Z,13.00
2023-03-04T12:32:54.607Z,12.13
2023-03-04T12:35:33.191Z,9.88
2023-03-04T12:38:22.753Z,15.95
2023-03-04T12:40:57.466Z,7.45
2023-03-04T12:43:35.693Z,6.88
2023-03-04T12:46:12.289Z,5.78
2023-03-04T12:48:42.942Z,10.23
2023-03-04T12:51:19.467Z,8.90
2023-03-04T12:53:51.230Z,9.65
2023-03-04T12:56:25.039Z,8.40
2023-03-04T12:58:53.874Z,8.90
2023-03-04T13:01:28.275Z,9.25
2023-03-04T13:03:59.652Z,9.93
2023-03-04T13:06:37.022Z,9.32
2023-03-04T13:09:11.374Z,6.78
2023-03-04T13:11:52.641Z,8.52
2023-03-04T13:14:25.595Z,8.85
2023-03-04T13:16:54.890Z,9.98
2023-03-04T13:19:41.915Z,10.30
2023-03-04T13:22:25.169Z,11.13
2023-03-04T13:24:53.631Z,8.63
2023-03-04T13:27:40.836Z,8.68
2023-03-04T13:30:33.448Z,13.65
2023-03-04T13:33:24.189Z,10.52
2023-03-04T13:36:03.886Z,12.52
2023-03-04T13:38:37.102Z,14.93
2023-03-04T13:41:14.320Z,11.25
2023-03-04T13:43:43.337Z,14.32
2023-03-04T13:46:30.262Z,10.27
2023-03-04T13:49:05.806Z,10.43
2023-03-04T13:51:37.445Z,12.13
2023-03-04T13:54:13.942Z,9.32
2023-03-04T13:56:42.893Z,9.88
2023-03-04T13:59:29.421Z,11.88
2023-03-04T14:01:59.892Z,9.05
2023-03-04T14:04:34.773Z,7.07
2023-03-04T14:07:05.853Z,9.27
2023-03-04T14:09:34.965Z,9.25
2023-03-04T14:12:05.093Z,9.38
2023-03-04T14:14:38.276Z,10.63
2023-03-04T14:17:08.094Z,8.63
2023-03-04T14:19:39.775Z,9.90
2023-03-04T14:22:22.487Z,8.70
2023-03-04T14:24:57.420Z,8.93
2023-03-04T14:27:27.072Z,9.95
2023-03-04T14:29:58.992Z,8.32
2023-03-04T14:32:27.919Z,11.57
2023-03-04T14:34:57.747Z,10.02
2023-03-04T14:37:30.570Z,10.23
2023-03-04T14:40:00.276Z,9.68
2023-03-04T14:42:33.216Z,9.20
2023-03-04T14:45:17.447Z,10.65
2023-03-04T14:47:48.374Z,13.43
2023-03-04T14:50:18.418Z,13.18
2023-03-04T14:52:51.621Z,9.90
2023-03-04T14:55:24.748Z,12.85
2023-03-04T14:57:58.303Z,11.02
2023-03-04T15:00:31.365Z,14.73
2023-03-04T15:03:00.633Z,17.63
2023-03-04T15:05:29.996Z,15.77
2023-03-04T15:08:04.224Z,10.40
2023-03-04T15:10:33.745Z,11.25
2023-03-04T15:13:05.717Z,12.88
2023-03-04T15:15:39.750Z,11.85
2023-03-04T15:18:23.029Z,12.10
2023-03-04T15:21:14.812Z,9.77
2023-03-04T15:23:45.503Z,8.65
2023-03-04T15:26:14.433Z,9.25
2023-03-04T15:28:43.727Z,10.07
2023-03-04T15:31:17.584Z,11.25
2023-03-04T15:33:46.352Z,12.80
2023-03-04T15:36:16.508Z,17.70
2023-03-04T15:38:48.621Z,14.75
2023-03-04T15:41:20.022Z,11.70
2023-03-04T15:43:48.507Z,12.82
2023-03-04T15:46:20.057Z,8.55
2023-03-04T15:48:48.810Z,9.20
2023-03-04T15:51:18.670Z,8.18
2023-03-04T15:53:49.197Z,11.13
2023-03-04T15:56:22.648Z,9.95
2023-03-04T15:58:56.312Z,8.15
2023-03-04T16:01:25.028Z,7.43
2023-03-04T16:03:54.218Z,8.57
2023-03-04T16:06:23.506Z,9.10
2023-03-04T16:08:53.933Z,11.43
2023-03-04T16:11:24.136Z,12.48
2023-03-04T16:13:52.865Z,9.50
2023-03-04T16:16:21.570Z,5.95
2023-03-04T16:18:50.222Z,8.90
2023-03-04T16:21:20.046Z,8.63
2023-03-04T16:23:50.181Z,11.65
2023-03-04T16:26:23.579Z,8.70
2023-03-04T16:28:56.004Z,7.13
2023-03-04T16:31:24.895Z,11.07
2023-03-04T16:33:53.697Z,9.90
2023-03-04T16:36:23.376Z,9.27
2023-03-04T16:38:59.163Z,10.65
2023-03-04T16:41:34.614Z,9.52
2023-03-04T16:44:03.598Z,10.63
2023-03-04T16:46:33.653Z,11.38
2023-03-04T16:49:04.033Z,11.15
2023-03-04T16:51:36.154Z,14.68
2023-03-04T16:54:06.612Z,9.88
2023-03-04T16:56:36.370Z,11.75
2023-03-04T16:59:04.886Z,9.80
2023-03-04T17:01:36.528Z,15.82
2023-03-04T17:04:05.043Z,15.13
2023-03-04T17:06:38.089Z,16.65
2023-03-04T17:09:06.486Z,15.02
2023-03-04T17:11:36.403Z,13.63
2023-03-04T17:14:06.814Z,15.38
2023-03-04T17:16:35.979Z,12.23
2023-03-04T17:19:04.457Z,14.75
2023-03-04T17:21:32.946Z,14.00
2023-03-04T17:24:03.079Z,16.83
2023-03-04T17:26:32.953Z,14.05
2023-03-04T17:29:20.727Z,15.27
2023-03-04T17:32:02.022Z,13.35
2023-03-04T17:34:35.044Z,17.58
2023-03-04T17:37:06.512Z,19.42
2023-03-04T17:39:34.849Z,15.52
2023-03-04T17:42:03.192Z,13.85
2023-03-04T17:44:33.489Z,19.15
2023-03-04T17:47:01.754Z,17.15
2023-03-04T17:49:30.043Z,15.25
2023-03-04T17:51:58.690Z,21.00
2023-03-04T17:54:27.863Z,19.08
2023-03-04T17:56:56.181Z,17.08
2023-03-04T17:59:24.464Z,18.00
2023-03-04T18:01:56.884Z,20.40
2023-03-04T18:04:25.508Z,22.02
2023-03-04T18:06:53.891Z,14.05
2023-03-04T18:09:24.996Z,23.00
2023-03-04T18:11:53.338Z,16.42
2023-03-04T18:14:21.705Z,16.73
2023-03-04T18:16:50.010Z,20.05
2023-03-04T18:19:19.626Z,17.40
2023-03-04T18:21:47.900Z,17.08
2023-03-04T18:24:16.157Z,15.77
2023-03-04T18:26:44.453Z,17.60
2023-03-04T18:29:12.857Z,16.13
2023-03-04T18:31:41.186Z,17.58
2023-03-04T18:34:09.475Z,15.88
2023-03-04T18:36:39.057Z,16.50
2023-03-04T18:39:07.402Z,15.77
2023-03-04T18:41:35.742Z,18.13
2023-03-04T18:44:04.902Z,17.45
2023-03-04T18:46:36.148Z,33.30
2023-03-04T18:49:05.301Z,14.65
2023-03-04T18:51:33.603Z,15.15
2023-03-04T18:54:03.293Z,20.90
2023-03-04T18:56:37.673Z,16.95
2023-03-04T18:59:06.894Z,15.15
2023-03-04T19:01:37.340Z,26.42
2023-03-04T19:04:07.659Z,20.30
2023-03-04T19:06:36.291Z,17.65
2023-03-04T19:09:06.493Z,18.52
2023-03-04T19:11:35.135Z,15.02
2023-03-04T19:14:03.702Z,26.50
2023-03-04T19:16:32.023Z,17.42
2023-03-04T19:19:00.320Z,17.85
2023-03-04T19:21:28.595Z,18.80
2023-03-04T19:23:56.924Z,15.98
2023-03-04T19:26:26.566Z,20.73
2023-03-04T19:28:54.925Z,18.80
2023-03-04T19:31:23.206Z,15.55
2023-03-04T19:33:51.599Z,20.27
2023-03-04T19:36:19.850Z,16.75
2023-03-04T19:38:48.170Z,26.75
2023-03-04T19:41:17.233Z,25.52
2023-03-04T19:43:46.889Z,21.17
2023-03-04T19:46:15.492Z,21.00
2023-03-04T19:48:44.953Z,45.50
2023-03-04T19:51:16.961Z,40.13
2023-03-04T19:53:45.414Z,32.72
2023-03-04T19:56:14.101Z,44.33
2023-03-04T19:58:42.413Z,43.45
2023-03-04T20:01:21.993Z,22.20
2023-03-04T20:03:50.389Z,29.75
2023-03-04T20:06:18.706Z,19.80
2023-03-04T20:08:46.998Z,21.20
2023-03-04T20:11:15.416Z,17.95
2023-03-04T20:13:43.692Z,18.80
2023-03-04T20:16:12.525Z,23.63
2023-03-04T20:18:42.651Z,18.95
2023-03-04T20:21:11.116Z,17.38
2023-03-04T20:23:39.484Z,19.48
2023-03-04T20:26:07.961Z,21.30
2023-03-04T20:28:50.316Z,17.95
2023-03-04T20:31:21.158Z,19.92
2023-03-04T20:33:51.076Z,33.13
2023-03-04T20:36:20.110Z,20.20
2023-03-04T20:38:49.287Z,17.65
2023-03-04T20:41:17.935Z,16.80
2023-03-04T20:43:46.240Z,15.02
2023-03-04T20:46:28.070Z,16.02
2023-03-04T20:48:59.952Z,16.63
2023-03-04T20:51:28.218Z,19.13
2023-03-04T20:53:56.513Z,18.80
2023-03-04T20:56:25.109Z,16.65
2023-03-04T20:58:54.238Z,17.55
2023-03-04T21:01:22.884Z,18.38
2023-03-04T21:03:51.970Z,18.35
2023-03-04T21:06:21.736Z,18.75
2023-03-04T21:08:50.055Z,33.47
2023-03-04T21:11:19.060Z,21.42
2023-03-04T21:13:53.840Z,31.30
2023-03-04T21:16:22.144Z,19.50
2023-03-04T21:18:50.552Z,27.98
2023-03-04T21:21:21.976Z,16.63
2023-03-04T21:23:52.079Z,15.40
2023-03-04T21:26:21.997Z,18.02
2023-03-04T21:28:50.854Z,17.08
2023-03-04T21:31:20.286Z,17.52
2023-03-04T21:33:48.762Z,17.35
2023-03-04T21:36:17.229Z,13.95
2023-03-04T21:38:46.362Z,16.45
2023-03-04T21:41:16.016Z,18.55
2023-03-04T21:43:44.380Z,18.02
2023-03-04T21:46:14.673Z,20.05
2023-03-04T21:48:44.773Z,16.52
2023-03-04T21:51:14.163Z,22.40
2023-03-04T21:53:43.294Z,16.35
2023-03-04T21:56:12.456Z,18.35
2023-03-04T21:58:42.450Z,22.88
2023-03-04T22:01:12.293Z,20.63
2023-03-04T22:03:41.180Z,19.88
2023-03-04T22:06:11.163Z,19.33
2023-03-04T22:08:40.097Z,17.50
2023-03-04T22:11:09.482Z,18.88
2023-03-04T22:13:38.309Z,21.25
2023-03-04T22:16:08.492Z,17.67
2023-03-04T22:18:39.788Z,18.05
2023-03-04T22:21:09.168Z,19.38
2023-03-04T22:23:37.787Z,18.45
2023-03-04T22:26:06.688Z,18.90
2023-03-04T22:28:35.171Z,22.88
2023-03-04T22:31:03.801Z,19.05
2023-03-04T22:33:37.118Z,22.67
2023-03-04T22:36:06.693Z,18.02
2023-03-04T22:38:35.019Z,21.38
2023-03-04T22:41:03.614Z,20.13
2023-03-04T22:43:31.916Z,20.75
2023-03-04T22:46:01.642Z,18.85
2023-03-04T22:48:29.964Z,20.20
2023-03-04T22:51:06.113Z,18.13
2023-03-04T22:53:34.506Z,18.35
2023-03-04T22:56:02.802Z,20.80
2023-03-04T22:58:31.139Z,16.95
2023-03-04T23:00:59.474Z,17.45
2023-03-04T23:03:27.858Z,18.15
2023-03-04T23:06:03.564Z,17.90
2023-03-04T23:08:31.878Z,15.63
2023-03-04T23:11:00.207Z,17.25
2023-03-04T23:13:29.184Z,18.02
2023-03-04T23:15:57.473Z,19.88
2023-03-04T23:18:25.788Z,17.75
2023-03-04T23:20:54.135Z,17.05
2023-03-04T23:23:23.805Z,19.55
2023-03-04T23:25:52.099Z,19.27
2023-03-04T23:28:20.534Z,18.58
2023-03-04T23:30:49.081Z,17.98
2023-03-04T23:33:17.397Z,14.80
2023-03-04T23:35:45.722Z,16.65
2023-03-04T23:38:14.414Z,16.60
2023-03-04T23:40:47.540Z,16.73
2023-03-04T23:43:16.178Z,18.05
2023-03-04T23:45:44.541Z,15.88
2023-03-04T23:48:13.015Z,13.77
2023-03-04T23:50:41.350Z,14.95
2023-03-04T23:53:09.871Z,18.90
2023-03-04T23:55:38.412Z,16.02
2023-03-04T23:58:08.184Z,16.42
